sim
Sign-in with your pilot id or email,
or register
Callsign
Passwort

Schedule Details

Flight Number: DLH2501
Departure: Manchester Airport (EGCC) at 10:40
Arrival: Munich Airport (EDDM) at 12:35
Route: Lufthansa Passenger Schedule. Enter filed route here before submitting Pirep.

Weather Information
Getting current METAR information for EGCC 240120Z AUTO 18003KT 9999 BKN034 08/06 Q0996 NOSIG
Getting current METAR information for EDDM 240120Z 24003KT CAVOK 11/11 Q1009 NOSIG

Schedule Frequency

Route Map